Погода Бабана неделю

Куявско-Поморское воеводство, Польша

19 - 25 июля
  • 19июля
    Сегодня
    +16°
    +26°
    Облачно с прояснениями
    ВремяПогодаТемператураВлажностьДавлениеВетер, м/сВероятность осадков
    02:00Ясно и безоблачно+16°C89 %759 мм1.8 м/с2 %
    05:00Ясно и безоблачно+14°C95 %759 мм1.9 м/с2 %
    08:00Ясно и безоблачно+19°C78 %759 мм0.8 м/с2 %
    11:00Небольшая облачность+23°C62 %759 мм1.5 м/с2 %
    14:00Облачно с прояснениями+25°C53 %758 мм2.1 м/с3 %
    17:00Практически безоблачно+26°C51 %757 мм2.2 м/с2 %
    20:00Практически безоблачно+24°C71 %756 мм1.3 м/с2 %
    23:00Ясно и безоблачно+17°C80 %756 мм2.0 м/с2 %
  • 20июля
    Суббота
    +15°
    +28°
    Практически безоблачно
    ВремяПогодаТемператураВлажностьДавлениеВетер, м/сВероятность осадков
    02:00Небольшая облачность+18°C78 %755 мм1.2 м/с2 %
    05:00Облачно с прояснениями+16°C89 %754 мм1.2 м/с2 %
    08:00Облачно с прояснениями+20°C74 %754 мм0.0 м/с2 %
    11:00Облачно с прояснениями+24°C55 %753 мм0.8 м/с2 %
    14:00Практически безоблачно+27°C44 %752 мм1.2 м/с2 %
    17:00Небольшая облачность+28°C40 %751 мм2.8 м/с2 %
    20:00Небольшая облачность+25°C64 %751 мм0.8 м/с2 %
    23:00Практически безоблачно+20°C62 %750 мм2.1 м/с2 %
  • 21июля
    Воскресенье
    +16°
    +29°
    Ясно и безоблачно
    ВремяПогодаТемператураВлажностьДавлениеВетер, м/сВероятность осадков
    02:00Ясно и безоблачно+17°C76 %750 мм2.0 м/с2 %
    05:00Ясно и безоблачно+16°C88 %750 мм2.3 м/с2 %
    08:00Ясно и безоблачно+21°C72 %750 мм1.4 м/с2 %
    11:00Ясно и безоблачно+26°C49 %750 мм1.5 м/с2 %
    14:00Ясно и безоблачно+28°C43 %749 мм1.5 м/с2 %
    17:00Ясно и безоблачно+29°C39 %749 мм1.7 м/с2 %
    20:00Ясно и безоблачно+27°C53 %748 мм1.1 м/с2 %
    23:00Ясно и безоблачно+21°C67 %749 мм2.2 м/с2 %
  • 22июля
    Понедельник
    +14°
    +30°
    Облачно с прояснениями
    ВремяПогодаТемператураВлажностьДавлениеВетер, м/сВероятность осадков
    02:00Небольшая облачность+19°C75 %749 мм2.6 м/с2 %
    05:00Ясно и безоблачно+17°C86 %749 мм1.8 м/с2 %
    08:00Ясно и безоблачно+22°C70 %749 мм1.3 м/с9 %
    11:00Ясно и безоблачно+27°C44 %749 мм1.0 м/с26 %
    14:00Облачно с прояснениями+29°C36 %749 мм1.0 м/с39 %
    17:00Пасмурно, небольшой дождь+25°C62 %750 мм6.4 м/с45 %
    20:00Пасмурно, ливень+21°C87 %751 мм3.0 м/с39 %
    23:00Облачно с прояснениями, небольшой дождь+19°C95 %752 мм2.5 м/с27 %
  • 23июля
    Вторник
    +14°
    +24°
    Ясно и безоблачно
    ВремяПогодаТемператураВлажностьДавлениеВетер, м/сВероятность осадков
    02:00Небольшая облачность+17°C96 %753 мм4.2 м/с21 %
    05:00Ясно и безоблачно+15°C95 %753 мм4.0 м/с19 %
    08:00Практически безоблачно+18°C83 %754 мм3.9 м/с23 %
    11:00Ясно и безоблачно+21°C61 %754 мм3.9 м/с27 %
    14:00Ясно и безоблачно+23°C49 %754 мм3.2 м/с42 %
    17:00Ясно и безоблачно+23°C45 %753 мм2.5 м/с35 %
    20:00Ясно и безоблачно+22°C66 %753 мм1.3 м/с29 %
    23:00Ясно и безоблачно+17°C73 %753 мм1.9 м/с14 %
Мы используем cookies
Соглашаюсь